sensor_id;sensor_type;location;lat;lon;timestamp;P1;durP1;ratioP1;P2;durP2;ratioP2
41861;SDS011;27537;57.134;-2.136;2023-08-06T00:01:53;8.13;;;2.55;;
41861;SDS011;27537;57.134;-2.136;2023-08-06T00:04:20;7.55;;;2.42;;
41861;SDS011;27537;57.134;-2.136;2023-08-06T00:06:47;8.25;;;2.60;;
41861;SDS011;27537;57.134;-2.136;2023-08-06T00:09:13;7.65;;;2.20;;
41861;SDS011;27537;57.134;-2.136;2023-08-06T00:11:40;7.45;;;2.55;;
41861;SDS011;27537;57.134;-2.136;2023-08-06T00:14:07;9.77;;;2.33;;
41861;SDS011;27537;57.134;-2.136;2023-08-06T00:16:34;6.95;;;2.22;;
41861;SDS011;27537;57.134;-2.136;2023-08-06T00:19:00;7.55;;;2.33;;
41861;SDS011;27537;57.134;-2.136;2023-08-06T00:21:27;7.60;;;2.30;;
41861;SDS011;27537;57.134;-2.136;2023-08-06T00:23:54;6.88;;;2.28;;
41861;SDS011;27537;57.134;-2.136;2023-08-06T00:26:20;6.65;;;2.00;;
41861;SDS011;27537;57.134;-2.136;2023-08-06T00:28:47;10.60;;;2.55;;
41861;SDS011;27537;57.134;-2.136;2023-08-06T00:31:14;7.70;;;2.25;;
41861;SDS011;27537;57.134;-2.136;2023-08-06T00:33:40;5.63;;;1.83;;
41861;SDS011;27537;57.134;-2.136;2023-08-06T00:36:07;7.68;;;2.72;;
41861;SDS011;27537;57.134;-2.136;2023-08-06T00:38:34;7.70;;;2.50;;
41861;SDS011;27537;57.134;-2.136;2023-08-06T00:41:00;6.05;;;2.30;;
41861;SDS011;27537;57.134;-2.136;2023-08-06T00:43:27;8.23;;;2.25;;
41861;SDS011;27537;57.134;-2.136;2023-08-06T00:45:54;6.55;;;2.08;;
41861;SDS011;27537;57.134;-2.136;2023-08-06T00:48:21;7.93;;;2.65;;
41861;SDS011;27537;57.134;-2.136;2023-08-06T00:50:48;7.63;;;2.60;;
41861;SDS011;27537;57.134;-2.136;2023-08-06T00:53:14;6.45;;;2.13;;
41861;SDS011;27537;57.134;-2.136;2023-08-06T00:55:42;6.53;;;1.90;;
41861;SDS011;27537;57.134;-2.136;2023-08-06T00:58:11;8.30;;;2.10;;
41861;SDS011;27537;57.134;-2.136;2023-08-06T01:00:39;6.32;;;2.10;;
41861;SDS011;27537;57.134;-2.136;2023-08-06T01:03:06;7.10;;;2.10;;
41861;SDS011;27537;57.134;-2.136;2023-08-06T01:05:33;6.05;;;1.83;;
41861;SDS011;27537;57.134;-2.136;2023-08-06T01:11:14;9.88;;;2.10;;
41861;SDS011;27537;57.134;-2.136;2023-08-06T01:13:50;5.90;;;2.03;;
41861;SDS011;27537;57.134;-2.136;2023-08-06T01:16:23;5.78;;;1.70;;
41861;SDS011;27537;57.134;-2.136;2023-08-06T01:18:50;4.47;;;1.63;;
41861;SDS011;27537;57.134;-2.136;2023-08-06T01:21:17;4.25;;;1.50;;
41861;SDS011;27537;57.134;-2.136;2023-08-06T01:23:45;3.63;;;1.60;;
41861;SDS011;27537;57.134;-2.136;2023-08-06T01:29:06;5.43;;;1.90;;
41861;SDS011;27537;57.134;-2.136;2023-08-06T01:31:40;5.60;;;1.70;;
41861;SDS011;27537;57.134;-2.136;2023-08-06T01:34:10;5.57;;;1.88;;
41861;SDS011;27537;57.134;-2.136;2023-08-06T01:36:43;7.75;;;2.38;;
41861;SDS011;27537;57.134;-2.136;2023-08-06T01:39:11;5.85;;;1.85;;
41861;SDS011;27537;57.134;-2.136;2023-08-06T01:41:38;8.13;;;2.67;;
41861;SDS011;27537;57.134;-2.136;2023-08-06T01:44:05;6.18;;;1.80;;
41861;SDS011;27537;57.134;-2.136;2023-08-06T01:46:32;6.03;;;1.83;;
41861;SDS011;27537;57.134;-2.136;2023-08-06T01:48:59;4.60;;;1.67;;
41861;SDS011;27537;57.134;-2.136;2023-08-06T01:51:25;3.50;;;1.33;;
41861;SDS011;27537;57.134;-2.136;2023-08-06T01:53:52;4.47;;;1.73;;
41861;SDS011;27537;57.134;-2.136;2023-08-06T01:56:18;4.55;;;1.80;;
41861;SDS011;27537;57.134;-2.136;2023-08-06T01:58:45;5.90;;;2.05;;
41861;SDS011;27537;57.134;-2.136;2023-08-06T02:01:12;5.15;;;1.52;;
41861;SDS011;27537;57.134;-2.136;2023-08-06T02:03:38;8.07;;;2.25;;
41861;SDS011;27537;57.134;-2.136;2023-08-06T02:06:05;4.90;;;1.70;;
41861;SDS011;27537;57.134;-2.136;2023-08-06T02:08:32;7.05;;;2.20;;
41861;SDS011;27537;57.134;-2.136;2023-08-06T02:10:59;4.75;;;1.77;;
41861;SDS011;27537;57.134;-2.136;2023-08-06T02:13:25;4.20;;;1.60;;
41861;SDS011;27537;57.134;-2.136;2023-08-06T02:15:52;4.65;;;1.63;;
41861;SDS011;27537;57.134;-2.136;2023-08-06T02:18:19;5.50;;;1.95;;
41861;SDS011;27537;57.134;-2.136;2023-08-06T02:21:07;6.03;;;1.75;;
41861;SDS011;27537;57.134;-2.136;2023-08-06T02:23:32;4.30;;;1.70;;
41861;SDS011;27537;57.134;-2.136;2023-08-06T02:26:02;5.65;;;1.80;;
41861;SDS011;27537;57.134;-2.136;2023-08-06T02:28:30;5.45;;;2.10;;
41861;SDS011;27537;57.134;-2.136;2023-08-06T02:30:57;8.40;;;1.85;;
41861;SDS011;27537;57.134;-2.136;2023-08-06T02:33:24;6.15;;;1.90;;
41861;SDS011;27537;57.134;-2.136;2023-08-06T02:35:51;5.60;;;1.83;;
41861;SDS011;27537;57.134;-2.136;2023-08-06T02:38:17;5.28;;;1.80;;
41861;SDS011;27537;57.134;-2.136;2023-08-06T02:40:47;4.93;;;1.67;;
41861;SDS011;27537;57.134;-2.136;2023-08-06T02:43:13;4.82;;;1.70;;
41861;SDS011;27537;57.134;-2.136;2023-08-06T02:45:40;8.07;;;1.73;;
41861;SDS011;27537;57.134;-2.136;2023-08-06T02:48:07;9.50;;;2.08;;
41861;SDS011;27537;57.134;-2.136;2023-08-06T02:50:40;6.53;;;1.85;;
41861;SDS011;27537;57.134;-2.136;2023-08-06T02:53:07;4.80;;;1.75;;
41861;SDS011;27537;57.134;-2.136;2023-08-06T02:55:34;5.65;;;1.95;;
41861;SDS011;27537;57.134;-2.136;2023-08-06T02:58:01;3.72;;;1.63;;
41861;SDS011;27537;57.134;-2.136;2023-08-06T03:00:29;5.07;;;1.70;;
41861;SDS011;27537;57.134;-2.136;2023-08-06T03:02:55;7.18;;;1.98;;
41861;SDS011;27537;57.134;-2.136;2023-08-06T03:05:22;5.63;;;1.90;;
41861;SDS011;27537;57.134;-2.136;2023-08-06T03:07:48;6.75;;;1.63;;
41861;SDS011;27537;57.134;-2.136;2023-08-06T03:10:15;5.82;;;1.70;;
41861;SDS011;27537;57.134;-2.136;2023-08-06T03:12:42;5.20;;;1.80;;
41861;SDS011;27537;57.134;-2.136;2023-08-06T03:15:09;6.95;;;1.90;;
41861;SDS011;27537;57.134;-2.136;2023-08-06T03:17:36;4.75;;;1.60;;
41861;SDS011;27537;57.134;-2.136;2023-08-06T03:20:02;3.80;;;1.35;;
41861;SDS011;27537;57.134;-2.136;2023-08-06T03:22:29;5.72;;;1.70;;
41861;SDS011;27537;57.134;-2.136;2023-08-06T03:24:56;3.35;;;1.48;;
41861;SDS011;27537;57.134;-2.136;2023-08-06T03:27:23;3.97;;;1.48;;
41861;SDS011;27537;57.134;-2.136;2023-08-06T03:29:49;3.42;;;1.30;;
41861;SDS011;27537;57.134;-2.136;2023-08-06T03:32:16;3.47;;;1.40;;
41861;SDS011;27537;57.134;-2.136;2023-08-06T03:34:43;5.20;;;1.70;;
41861;SDS011;27537;57.134;-2.136;2023-08-06T03:37:10;4.22;;;1.20;;
41861;SDS011;27537;57.134;-2.136;2023-08-06T03:39:37;5.40;;;1.42;;
41861;SDS011;27537;57.134;-2.136;2023-08-06T03:42:03;6.20;;;1.67;;
41861;SDS011;27537;57.134;-2.136;2023-08-06T03:44:30;3.80;;;1.42;;
41861;SDS011;27537;57.134;-2.136;2023-08-06T03:46:57;5.97;;;1.67;;
41861;SDS011;27537;57.134;-2.136;2023-08-06T03:49:23;6.30;;;1.50;;
41861;SDS011;27537;57.134;-2.136;2023-08-06T03:51:50;6.63;;;1.90;;
41861;SDS011;27537;57.134;-2.136;2023-08-06T03:54:17;5.72;;;1.70;;
41861;SDS011;27537;57.134;-2.136;2023-08-06T03:56:44;5.10;;;1.30;;
41861;SDS011;27537;57.134;-2.136;2023-08-06T03:59:11;4.55;;;1.50;;
41861;SDS011;27537;57.134;-2.136;2023-08-06T04:01:37;4.07;;;1.50;;
41861;SDS011;27537;57.134;-2.136;2023-08-06T04:04:04;3.75;;;1.50;;
41861;SDS011;27537;57.134;-2.136;2023-08-06T04:06:30;4.60;;;1.70;;
41861;SDS011;27537;57.134;-2.136;2023-08-06T04:08:57;5.60;;;1.55;;
41861;SDS011;27537;57.134;-2.136;2023-08-06T04:11:24;2.78;;;1.23;;
41861;SDS011;27537;57.134;-2.136;2023-08-06T04:13:51;5.22;;;1.58;;
41861;SDS011;27537;57.134;-2.136;2023-08-06T04:16:17;2.55;;;1.20;;
41861;SDS011;27537;57.134;-2.136;2023-08-06T04:18:44;4.38;;;1.60;;
41861;SDS011;27537;57.134;-2.136;2023-08-06T04:21:12;5.10;;;1.63;;
41861;SDS011;27537;57.134;-2.136;2023-08-06T04:23:39;4.70;;;1.60;;
41861;SDS011;27537;57.134;-2.136;2023-08-06T04:26:05;5.30;;;1.88;;
41861;SDS011;27537;57.134;-2.136;2023-08-06T04:28:32;3.60;;;1.60;;
41861;SDS011;27537;57.134;-2.136;2023-08-06T04:30:59;4.43;;;1.63;;
41861;SDS011;27537;57.134;-2.136;2023-08-06T04:33:26;5.80;;;1.90;;
41861;SDS011;27537;57.134;-2.136;2023-08-06T04:35:55;4.40;;;1.60;;
41861;SDS011;27537;57.134;-2.136;2023-08-06T04:38:25;6.10;;;1.90;;
41861;SDS011;27537;57.134;-2.136;2023-08-06T04:40:52;7.45;;;2.30;;
41861;SDS011;27537;57.134;-2.136;2023-08-06T04:43:19;7.45;;;2.20;;
41861;SDS011;27537;57.134;-2.136;2023-08-06T04:45:50;5.35;;;1.80;;
41861;SDS011;27537;57.134;-2.136;2023-08-06T04:48:18;5.90;;;2.10;;
41861;SDS011;27537;57.134;-2.136;2023-08-06T04:50:45;5.22;;;1.58;;
41861;SDS011;27537;57.134;-2.136;2023-08-06T04:53:16;4.18;;;1.55;;
41861;SDS011;27537;57.134;-2.136;2023-08-06T04:55:43;6.07;;;2.10;;
41861;SDS011;27537;57.134;-2.136;2023-08-06T04:58:10;7.18;;;1.98;;
41861;SDS011;27537;57.134;-2.136;2023-08-06T05:00:37;6.55;;;1.83;;
41861;SDS011;27537;57.134;-2.136;2023-08-06T05:03:05;3.85;;;1.52;;
41861;SDS011;27537;57.134;-2.136;2023-08-06T05:05:32;5.22;;;1.75;;
41861;SDS011;27537;57.134;-2.136;2023-08-06T05:07:59;6.28;;;1.67;;
41861;SDS011;27537;57.134;-2.136;2023-08-06T05:10:25;5.55;;;1.80;;
41861;SDS011;27537;57.134;-2.136;2023-08-06T05:12:53;6.53;;;1.80;;
41861;SDS011;27537;57.134;-2.136;2023-08-06T05:15:19;6.65;;;1.70;;
41861;SDS011;27537;57.134;-2.136;2023-08-06T05:17:46;5.90;;;1.98;;
41861;SDS011;27537;57.134;-2.136;2023-08-06T05:20:13;4.25;;;1.50;;
41861;SDS011;27537;57.134;-2.136;2023-08-06T05:22:40;6.28;;;2.30;;
41861;SDS011;27537;57.134;-2.136;2023-08-06T05:25:07;4.13;;;1.60;;
41861;SDS011;27537;57.134;-2.136;2023-08-06T05:27:33;3.88;;;1.45;;
41861;SDS011;27537;57.134;-2.136;2023-08-06T05:30:00;4.43;;;1.63;;
41861;SDS011;27537;57.134;-2.136;2023-08-06T05:32:27;6.18;;;1.75;;
41861;SDS011;27537;57.134;-2.136;2023-08-06T05:34:53;4.53;;;1.67;;
41861;SDS011;27537;57.134;-2.136;2023-08-06T05:37:20;4.78;;;1.60;;
41861;SDS011;27537;57.134;-2.136;2023-08-06T05:39:47;7.03;;;1.75;;
41861;SDS011;27537;57.134;-2.136;2023-08-06T05:42:13;6.75;;;1.85;;
41861;SDS011;27537;57.134;-2.136;2023-08-06T05:44:40;5.07;;;1.67;;
41861;SDS011;27537;57.134;-2.136;2023-08-06T05:47:07;7.03;;;1.92;;
41861;SDS011;27537;57.134;-2.136;2023-08-06T05:49:33;6.35;;;1.85;;
41861;SDS011;27537;57.134;-2.136;2023-08-06T05:52:00;5.18;;;1.80;;
41861;SDS011;27537;57.134;-2.136;2023-08-06T05:54:27;5.32;;;1.50;;
41861;SDS011;27537;57.134;-2.136;2023-08-06T05:56:53;6.10;;;1.98;;
41861;SDS011;27537;57.134;-2.136;2023-08-06T05:59:20;4.95;;;1.77;;
41861;SDS011;27537;57.134;-2.136;2023-08-06T06:01:47;6.47;;;1.90;;
41861;SDS011;27537;57.134;-2.136;2023-08-06T06:04:13;4.63;;;1.77;;
41861;SDS011;27537;57.134;-2.136;2023-08-06T06:06:40;5.90;;;1.83;;
41861;SDS011;27537;57.134;-2.136;2023-08-06T06:09:08;5.82;;;1.90;;
41861;SDS011;27537;57.134;-2.136;2023-08-06T06:11:34;7.30;;;2.05;;
41861;SDS011;27537;57.134;-2.136;2023-08-06T06:14:01;5.53;;;1.80;;
41861;SDS011;27537;57.134;-2.136;2023-08-06T06:16:28;8.88;;;2.30;;
41861;SDS011;27537;57.134;-2.136;2023-08-06T06:18:54;4.90;;;1.63;;
41861;SDS011;27537;57.134;-2.136;2023-08-06T06:21:23;5.35;;;1.73;;
41861;SDS011;27537;57.134;-2.136;2023-08-06T06:23:50;6.28;;;1.90;;
41861;SDS011;27537;57.134;-2.136;2023-08-06T06:26:20;6.68;;;1.88;;
41861;SDS011;27537;57.134;-2.136;2023-08-06T06:28:47;6.20;;;2.15;;
41861;SDS011;27537;57.134;-2.136;2023-08-06T06:31:13;4.28;;;1.50;;
41861;SDS011;27537;57.134;-2.136;2023-08-06T06:33:40;4.32;;;1.60;;
41861;SDS011;27537;57.134;-2.136;2023-08-06T06:36:07;7.55;;;2.17;;
41861;SDS011;27537;57.134;-2.136;2023-08-06T06:38:34;6.88;;;2.20;;
41861;SDS011;27537;57.134;-2.136;2023-08-06T06:41:00;5.00;;;1.92;;
41861;SDS011;27537;57.134;-2.136;2023-08-06T06:43:29;5.22;;;1.70;;
41861;SDS011;27537;57.134;-2.136;2023-08-06T06:45:56;4.65;;;1.67;;
41861;SDS011;27537;57.134;-2.136;2023-08-06T06:48:26;7.80;;;1.95;;
41861;SDS011;27537;57.134;-2.136;2023-08-06T06:50:58;5.88;;;2.28;;
41861;SDS011;27537;57.134;-2.136;2023-08-06T06:53:26;7.13;;;1.80;;
41861;SDS011;27537;57.134;-2.136;2023-08-06T06:55:55;5.75;;;1.83;;
41861;SDS011;27537;57.134;-2.136;2023-08-06T06:58:27;5.57;;;1.92;;
41861;SDS011;27537;57.134;-2.136;2023-08-06T07:00:54;6.05;;;2.15;;
41861;SDS011;27537;57.134;-2.136;2023-08-06T07:03:20;5.95;;;2.15;;
41861;SDS011;27537;57.134;-2.136;2023-08-06T07:05:47;5.38;;;1.70;;
41861;SDS011;27537;57.134;-2.136;2023-08-06T07:08:14;5.32;;;1.75;;
41861;SDS011;27537;57.134;-2.136;2023-08-06T07:10:41;3.67;;;1.55;;
41861;SDS011;27537;57.134;-2.136;2023-08-06T07:13:09;4.75;;;1.52;;
41861;SDS011;27537;57.134;-2.136;2023-08-06T07:15:36;4.90;;;1.50;;
41861;SDS011;27537;57.134;-2.136;2023-08-06T07:18:03;5.53;;;2.00;;
41861;SDS011;27537;57.134;-2.136;2023-08-06T07:20:29;5.53;;;2.20;;
41861;SDS011;27537;57.134;-2.136;2023-08-06T07:22:58;6.47;;;2.10;;
41861;SDS011;27537;57.134;-2.136;2023-08-06T07:25:25;5.72;;;1.90;;
41861;SDS011;27537;57.134;-2.136;2023-08-06T07:27:52;5.25;;;1.73;;
41861;SDS011;27537;57.134;-2.136;2023-08-06T07:30:18;6.63;;;2.10;;
41861;SDS011;27537;57.134;-2.136;2023-08-06T07:32:45;6.10;;;1.90;;
41861;SDS011;27537;57.134;-2.136;2023-08-06T07:35:12;6.03;;;1.85;;
41861;SDS011;27537;57.134;-2.136;2023-08-06T07:37:40;4.68;;;1.60;;
41861;SDS011;27537;57.134;-2.136;2023-08-06T07:40:07;3.90;;;1.35;;
41861;SDS011;27537;57.134;-2.136;2023-08-06T07:42:35;4.32;;;1.77;;
41861;SDS011;27537;57.134;-2.136;2023-08-06T07:45:02;5.65;;;1.70;;
41861;SDS011;27537;57.134;-2.136;2023-08-06T07:47:29;6.00;;;1.77;;
41861;SDS011;27537;57.134;-2.136;2023-08-06T07:49:55;5.57;;;1.90;;
41861;SDS011;27537;57.134;-2.136;2023-08-06T07:52:22;7.88;;;2.08;;
41861;SDS011;27537;57.134;-2.136;2023-08-06T07:54:49;8.80;;;2.42;;
41861;SDS011;27537;57.134;-2.136;2023-08-06T07:57:15;5.82;;;1.85;;
41861;SDS011;27537;57.134;-2.136;2023-08-06T07:59:43;6.07;;;2.03;;
41861;SDS011;27537;57.134;-2.136;2023-08-06T08:02:09;4.80;;;1.67;;
41861;SDS011;27537;57.134;-2.136;2023-08-06T08:04:36;5.65;;;2.05;;
41861;SDS011;27537;57.134;-2.136;2023-08-06T08:07:02;5.38;;;1.85;;
41861;SDS011;27537;57.134;-2.136;2023-08-06T08:09:29;5.82;;;1.95;;
41861;SDS011;27537;57.134;-2.136;2023-08-06T08:11:56;5.90;;;1.77;;
41861;SDS011;27537;57.134;-2.136;2023-08-06T08:14:26;4.72;;;1.75;;
41861;SDS011;27537;57.134;-2.136;2023-08-06T08:16:53;7.40;;;1.88;;
41861;SDS011;27537;57.134;-2.136;2023-08-06T08:19:20;5.97;;;1.60;;
41861;SDS011;27537;57.134;-2.136;2023-08-06T08:21:47;7.25;;;2.15;;
41861;SDS011;27537;57.134;-2.136;2023-08-06T08:24:14;6.43;;;1.92;;
41861;SDS011;27537;57.134;-2.136;2023-08-06T08:26:40;7.82;;;2.15;;
41861;SDS011;27537;57.134;-2.136;2023-08-06T08:29:07;10.32;;;2.55;;
41861;SDS011;27537;57.134;-2.136;2023-08-06T08:31:34;6.78;;;2.30;;
41861;SDS011;27537;57.134;-2.136;2023-08-06T08:34:05;7.22;;;2.13;;
41861;SDS011;27537;57.134;-2.136;2023-08-06T08:36:32;7.15;;;2.13;;
41861;SDS011;27537;57.134;-2.136;2023-08-06T08:38:59;5.82;;;2.10;;
41861;SDS011;27537;57.134;-2.136;2023-08-06T08:41:28;5.85;;;2.03;;
41861;SDS011;27537;57.134;-2.136;2023-08-06T08:43:56;5.63;;;1.85;;
41861;SDS011;27537;57.134;-2.136;2023-08-06T08:46:24;7.80;;;2.20;;
41861;SDS011;27537;57.134;-2.136;2023-08-06T08:48:54;5.80;;;1.83;;
41861;SDS011;27537;57.134;-2.136;2023-08-06T08:51:22;6.45;;;2.03;;
41861;SDS011;27537;57.134;-2.136;2023-08-06T08:53:49;8.48;;;2.30;;
41861;SDS011;27537;57.134;-2.136;2023-08-06T08:56:23;8.68;;;2.38;;
41861;SDS011;27537;57.134;-2.136;2023-08-06T08:58:50;5.28;;;1.95;;
41861;SDS011;27537;57.134;-2.136;2023-08-06T09:01:20;8.23;;;2.47;;
41861;SDS011;27537;57.134;-2.136;2023-08-06T09:03:48;7.57;;;2.22;;
41861;SDS011;27537;57.134;-2.136;2023-08-06T09:06:14;6.35;;;2.30;;
41861;SDS011;27537;57.134;-2.136;2023-08-06T09:08:47;8.00;;;2.80;;
41861;SDS011;27537;57.134;-2.136;2023-08-06T09:11:21;6.90;;;2.40;;
41861;SDS011;27537;57.134;-2.136;2023-08-06T09:13:48;8.55;;;2.30;;
41861;SDS011;27537;57.134;-2.136;2023-08-06T09:16:15;7.72;;;2.60;;
41861;SDS011;27537;57.134;-2.136;2023-08-06T09:18:42;6.20;;;2.38;;
41861;SDS011;27537;57.134;-2.136;2023-08-06T09:21:14;7.72;;;2.30;;
41861;SDS011;27537;57.134;-2.136;2023-08-06T09:23:42;9.75;;;2.50;;
41861;SDS011;27537;57.134;-2.136;2023-08-06T09:26:11;6.30;;;2.20;;
41861;SDS011;27537;57.134;-2.136;2023-08-06T09:28:41;8.47;;;2.90;;
41861;SDS011;27537;57.134;-2.136;2023-08-06T09:31:09;7.30;;;2.65;;
41861;SDS011;27537;57.134;-2.136;2023-08-06T09:33:37;8.98;;;2.55;;
41861;SDS011;27537;57.134;-2.136;2023-08-06T09:36:08;7.78;;;2.45;;
41861;SDS011;27537;57.134;-2.136;2023-08-06T09:38:37;8.20;;;2.65;;
41861;SDS011;27537;57.134;-2.136;2023-08-06T09:41:06;8.05;;;2.90;;
41861;SDS011;27537;57.134;-2.136;2023-08-06T09:43:43;7.60;;;2.80;;
41861;SDS011;27537;57.134;-2.136;2023-08-06T09:46:11;8.38;;;2.65;;
41861;SDS011;27537;57.134;-2.136;2023-08-06T09:48:39;6.90;;;2.40;;
41861;SDS011;27537;57.134;-2.136;2023-08-06T09:51:08;5.57;;;2.00;;
41861;SDS011;27537;57.134;-2.136;2023-08-06T09:53:36;8.50;;;2.30;;
41861;SDS011;27537;57.134;-2.136;2023-08-06T09:56:06;7.65;;;2.50;;
41861;SDS011;27537;57.134;-2.136;2023-08-06T09:58:35;5.90;;;2.05;;
41861;SDS011;27537;57.134;-2.136;2023-08-06T10:01:03;7.55;;;2.03;;
41861;SDS011;27537;57.134;-2.136;2023-08-06T10:03:30;6.22;;;2.03;;
41861;SDS011;27537;57.134;-2.136;2023-08-06T10:06:00;6.68;;;2.40;;
41861;SDS011;27537;57.134;-2.136;2023-08-06T10:08:29;7.18;;;2.30;;
41861;SDS011;27537;57.134;-2.136;2023-08-06T10:10:56;6.72;;;2.28;;
41861;SDS011;27537;57.134;-2.136;2023-08-06T10:13:24;6.40;;;2.22;;
41861;SDS011;27537;57.134;-2.136;2023-08-06T10:15:51;5.78;;;2.05;;
41861;SDS011;27537;57.134;-2.136;2023-08-06T10:18:19;7.05;;;2.25;;
41861;SDS011;27537;57.134;-2.136;2023-08-06T10:20:48;7.38;;;2.85;;
41861;SDS011;27537;57.134;-2.136;2023-08-06T10:23:15;7.28;;;2.58;;
41861;SDS011;27537;57.134;-2.136;2023-08-06T10:25:42;7.13;;;2.35;;
41861;SDS011;27537;57.134;-2.136;2023-08-06T10:28:09;7.57;;;2.33;;
41861;SDS011;27537;57.134;-2.136;2023-08-06T10:30:47;8.02;;;2.60;;
41861;SDS011;27537;57.134;-2.136;2023-08-06T10:33:14;10.93;;;2.60;;
41861;SDS011;27537;57.134;-2.136;2023-08-06T10:35:46;6.35;;;2.17;;
41861;SDS011;27537;57.134;-2.136;2023-08-06T10:38:21;9.07;;;2.42;;
41861;SDS011;27537;57.134;-2.136;2023-08-06T10:43:26;6.40;;;2.25;;
41861;SDS011;27537;57.134;-2.136;2023-08-06T10:45:58;5.88;;;1.98;;
41861;SDS011;27537;57.134;-2.136;2023-08-06T10:48:36;9.95;;;2.40;;
41861;SDS011;27537;57.134;-2.136;2023-08-06T10:51:08;6.97;;;2.42;;
41861;SDS011;27537;57.134;-2.136;2023-08-06T10:53:42;7.97;;;2.47;;
41861;SDS011;27537;57.134;-2.136;2023-08-06T10:56:17;5.97;;;1.92;;
41861;SDS011;27537;57.134;-2.136;2023-08-06T10:58:45;8.13;;;3.00;;
41861;SDS011;27537;57.134;-2.136;2023-08-06T11:01:12;7.63;;;2.50;;
41861;SDS011;27537;57.134;-2.136;2023-08-06T11:03:40;8.10;;;2.80;;
41861;SDS011;27537;57.134;-2.136;2023-08-06T11:06:08;8.70;;;2.80;;
41861;SDS011;27537;57.134;-2.136;2023-08-06T11:08:36;5.45;;;1.85;;
41861;SDS011;27537;57.134;-2.136;2023-08-06T11:11:09;8.07;;;2.20;;
41861;SDS011;27537;57.134;-2.136;2023-08-06T11:13:39;5.53;;;1.63;;
41861;SDS011;27537;57.134;-2.136;2023-08-06T11:16:16;5.40;;;2.00;;
41861;SDS011;27537;57.134;-2.136;2023-08-06T11:18:45;5.95;;;1.50;;
41861;SDS011;27537;57.134;-2.136;2023-08-06T11:21:11;6.35;;;1.67;;
41861;SDS011;27537;57.134;-2.136;2023-08-06T11:23:39;9.00;;;2.00;;
41861;SDS011;27537;57.134;-2.136;2023-08-06T11:26:07;6.80;;;2.08;;
41861;SDS011;27537;57.134;-2.136;2023-08-06T11:28:34;6.30;;;1.80;;
41861;SDS011;27537;57.134;-2.136;2023-08-06T11:31:01;7.30;;;1.77;;
41861;SDS011;27537;57.134;-2.136;2023-08-06T11:33:30;7.22;;;1.90;;
41861;SDS011;27537;57.134;-2.136;2023-08-06T11:35:58;9.35;;;1.88;;
41861;SDS011;27537;57.134;-2.136;2023-08-06T11:38:26;12.70;;;3.25;;
41861;SDS011;27537;57.134;-2.136;2023-08-06T11:40:55;8.32;;;2.50;;
41861;SDS011;27537;57.134;-2.136;2023-08-06T11:43:22;8.25;;;2.45;;
41861;SDS011;27537;57.134;-2.136;2023-08-06T11:45:49;6.72;;;2.13;;
41861;SDS011;27537;57.134;-2.136;2023-08-06T11:48:17;6.15;;;1.90;;
41861;SDS011;27537;57.134;-2.136;2023-08-06T11:50:44;6.20;;;1.70;;
41861;SDS011;27537;57.134;-2.136;2023-08-06T11:53:14;6.68;;;1.92;;
41861;SDS011;27537;57.134;-2.136;2023-08-06T11:55:41;8.10;;;1.75;;
41861;SDS011;27537;57.134;-2.136;2023-08-06T11:58:09;8.40;;;2.17;;
41861;SDS011;27537;57.134;-2.136;2023-08-06T12:00:38;8.05;;;2.25;;
41861;SDS011;27537;57.134;-2.136;2023-08-06T12:03:05;7.18;;;2.35;;
41861;SDS011;27537;57.134;-2.136;2023-08-06T12:05:32;8.85;;;2.45;;
41861;SDS011;27537;57.134;-2.136;2023-08-06T12:08:04;8.75;;;2.70;;
41861;SDS011;27537;57.134;-2.136;2023-08-06T12:10:31;7.80;;;2.30;;
41861;SDS011;27537;57.134;-2.136;2023-08-06T12:12:59;5.85;;;1.85;;
41861;SDS011;27537;57.134;-2.136;2023-08-06T12:15:26;8.65;;;2.40;;
41861;SDS011;27537;57.134;-2.136;2023-08-06T12:17:53;7.22;;;2.30;;
41861;SDS011;27537;57.134;-2.136;2023-08-06T12:20:20;9.98;;;3.17;;
41861;SDS011;27537;57.134;-2.136;2023-08-06T12:22:47;9.02;;;2.83;;
41861;SDS011;27537;57.134;-2.136;2023-08-06T12:25:14;7.00;;;2.20;;
41861;SDS011;27537;57.134;-2.136;2023-08-06T12:27:41;8.77;;;2.08;;
41861;SDS011;27537;57.134;-2.136;2023-08-06T12:30:09;6.50;;;2.35;;
41861;SDS011;27537;57.134;-2.136;2023-08-06T12:32:37;8.00;;;2.78;;
41861;SDS011;27537;57.134;-2.136;2023-08-06T12:35:04;8.52;;;2.40;;
41861;SDS011;27537;57.134;-2.136;2023-08-06T12:37:34;8.10;;;2.55;;
41861;SDS011;27537;57.134;-2.136;2023-08-06T12:40:01;7.38;;;2.45;;
41861;SDS011;27537;57.134;-2.136;2023-08-06T12:42:49;7.00;;;2.30;;
41861;SDS011;27537;57.134;-2.136;2023-08-06T12:45:17;10.30;;;3.05;;
41861;SDS011;27537;57.134;-2.136;2023-08-06T12:47:47;7.75;;;2.67;;
41861;SDS011;27537;57.134;-2.136;2023-08-06T12:50:15;8.88;;;2.65;;
41861;SDS011;27537;57.134;-2.136;2023-08-06T12:52:41;7.82;;;2.47;;
41861;SDS011;27537;57.134;-2.136;2023-08-06T12:55:08;8.60;;;3.35;;
41861;SDS011;27537;57.134;-2.136;2023-08-06T12:57:34;12.00;;;2.95;;
41861;SDS011;27537;57.134;-2.136;2023-08-06T13:00:21;7.85;;;3.08;;
41861;SDS011;27537;57.134;-2.136;2023-08-06T13:02:47;9.50;;;3.03;;
41861;SDS011;27537;57.134;-2.136;2023-08-06T13:05:15;6.70;;;2.72;;
41861;SDS011;27537;57.134;-2.136;2023-08-06T13:07:41;13.30;;;3.40;;
41861;SDS011;27537;57.134;-2.136;2023-08-06T13:10:08;9.30;;;2.92;;
41861;SDS011;27537;57.134;-2.136;2023-08-06T13:12:35;8.85;;;2.90;;
41861;SDS011;27537;57.134;-2.136;2023-08-06T13:15:02;10.82;;;3.20;;
41861;SDS011;27537;57.134;-2.136;2023-08-06T13:17:29;9.20;;;3.50;;
41861;SDS011;27537;57.134;-2.136;2023-08-06T13:19:55;8.00;;;2.75;;
41861;SDS011;27537;57.134;-2.136;2023-08-06T13:22:22;8.60;;;3.00;;
41861;SDS011;27537;57.134;-2.136;2023-08-06T13:24:48;7.22;;;2.60;;
41861;SDS011;27537;57.134;-2.136;2023-08-06T13:27:15;7.57;;;2.47;;
41861;SDS011;27537;57.134;-2.136;2023-08-06T13:29:42;8.75;;;3.38;;
41861;SDS011;27537;57.134;-2.136;2023-08-06T13:32:08;8.30;;;3.35;;
41861;SDS011;27537;57.134;-2.136;2023-08-06T13:34:35;9.13;;;3.10;;
41861;SDS011;27537;57.134;-2.136;2023-08-06T13:37:02;9.00;;;3.10;;
41861;SDS011;27537;57.134;-2.136;2023-08-06T13:39:28;8.65;;;2.90;;
41861;SDS011;27537;57.134;-2.136;2023-08-06T13:41:55;8.65;;;3.10;;
41861;SDS011;27537;57.134;-2.136;2023-08-06T13:44:22;7.18;;;2.45;;
41861;SDS011;27537;57.134;-2.136;2023-08-06T13:46:48;8.77;;;2.60;;
41861;SDS011;27537;57.134;-2.136;2023-08-06T13:49:16;8.68;;;3.17;;
41861;SDS011;27537;57.134;-2.136;2023-08-06T13:51:43;8.77;;;3.08;;
41861;SDS011;27537;57.134;-2.136;2023-08-06T13:54:09;9.70;;;2.85;;
41861;SDS011;27537;57.134;-2.136;2023-08-06T13:56:36;8.50;;;3.05;;
41861;SDS011;27537;57.134;-2.136;2023-08-06T13:59:04;8.25;;;2.88;;
41861;SDS011;27537;57.134;-2.136;2023-08-06T14:01:30;8.73;;;2.65;;
41861;SDS011;27537;57.134;-2.136;2023-08-06T14:04:14;9.02;;;3.42;;
41861;SDS011;27537;57.134;-2.136;2023-08-06T14:06:41;8.07;;;3.28;;
41861;SDS011;27537;57.134;-2.136;2023-08-06T14:09:08;11.00;;;4.65;;
41861;SDS011;27537;57.134;-2.136;2023-08-06T14:11:35;8.95;;;2.95;;
41861;SDS011;27537;57.134;-2.136;2023-08-06T14:14:03;9.77;;;3.28;;
41861;SDS011;27537;57.134;-2.136;2023-08-06T14:16:30;10.70;;;3.45;;
41861;SDS011;27537;57.134;-2.136;2023-08-06T14:18:57;9.60;;;3.40;;
41861;SDS011;27537;57.134;-2.136;2023-08-06T14:21:23;10.15;;;3.40;;
41861;SDS011;27537;57.134;-2.136;2023-08-06T14:23:50;8.25;;;3.22;;
41861;SDS011;27537;57.134;-2.136;2023-08-06T14:26:17;9.88;;;3.45;;
41861;SDS011;27537;57.134;-2.136;2023-08-06T14:28:44;8.38;;;3.22;;
41861;SDS011;27537;57.134;-2.136;2023-08-06T14:31:11;11.50;;;4.47;;
41861;SDS011;27537;57.134;-2.136;2023-08-06T14:33:38;8.90;;;3.58;;
41861;SDS011;27537;57.134;-2.136;2023-08-06T14:36:05;73.90;;;13.50;;
41861;SDS011;27537;57.134;-2.136;2023-08-06T14:38:32;63.67;;;12.13;;
41861;SDS011;27537;57.134;-2.136;2023-08-06T14:41:05;27.90;;;7.90;;
41861;SDS011;27537;57.134;-2.136;2023-08-06T14:43:32;12.65;;;5.05;;
41861;SDS011;27537;57.134;-2.136;2023-08-06T14:45:59;11.50;;;3.85;;